LBF weather

North Platte Regional Airport Lee Bird Field
North Platte, Nebraska, United States

Public forecast

Using degrees Fahrenheit for public forecast. Weather courtesy of forecast.io.

Current aviation weather report (METAR) for North Platte Regional Airport Lee Bird Field

Retrieved 2019/12/12 07:53 UTC (9 minutes ago):

KLBF 120753Z AUTO 34007KT 10SM CLR M04/M06 A2992 RMK AO2 SLP153 T10391061

Aviation forecast (TAF) for North Platte Regional Airport Lee Bird Field

Retrieved 2019/12/12 06:22 UTC (2 hours ago):

TAF KLBF 120520Z 1206/1306 34006KT P6SM SKC WS020/30035KT FM120700 27005KT P6SM BKN250 FM121700 25004KT P6SM SCT250